Ace High — WQZ3340 — position and weather

sailwx.info

Track history (hours):
 
Tides and Currents Weather Stations Pressure Air Temp Water Temp Dewpoint Dewpoint Depression Visibility Wind Speed Wind Dir Waves Ship Positions

Ace High

Owner: C & C BOATS INC, HUNTINGTON BEACH, CA. More information available from US FCC via Universal Licensing System and Coast Guard Vessel Documentation Center.

Last reported at 2017-Nov-20 00:25 UTC. Time now 2017-Nov-20 09:54 UTC.
Position N 34°21' W 120°17'.

Length 96 m.

Type: Passenger vessel. MMSI: 367394750.

Date/timePositionNaut miles runAvg speedWind from/ knotsBaromVisibWave heightAir tempDewpointWater temp
2017-Nov-20 00:25N 34°21' W 120°17'510.3
2017-Nov-19 23:58N 34°22' W 120°11'1 1.4
2017-Nov-19 23:01N 34°22' W 120°10'0 0.0
2017-Nov-19 22:46N 34°22' W 120°10'0 0.0
2017-Nov-19 21:49N 34°22' W 120°10'0 0.1
2017-Nov-19 21:25N 34°23' W 120°10'0 0.1
2017-Nov-19 20:55N 34°22' W 120°10'0 0.0
2017-Nov-19 19:19N 34°22' W 120°10'0 0.0
2017-Nov-19 18:55N 34°22' W 120°10'0 0.0
2017-Nov-19 18:25N 34°22' W 120°10'0 0.0
2017-Nov-19 16:52N 34°22' W 120°10'2 4.4
2017-Nov-19 16:28N 34°23' W 120°08'715.0
2017-Nov-19 16:00N 34°24' W 119°60'4 6.4
2017-Nov-19 15:22N 34°26' W 119°55'0 0.0
2017-Nov-19 14:52N 34°26' W 119°55'0 0.0
2017-Nov-19 13:43N 34°26' W 119°55'0 0.0
2017-Nov-19 12:37N 34°26' W 119°55'0 0.0
2017-Nov-19 12:16N 34°26' W 119°55'0 0.0
2017-Nov-19 11:58N 34°26' W 119°55'0 0.0
2017-Nov-19 10:25N 34°26' W 119°55'0 0.0
2017-Nov-19 09:04N 34°26' W 119°55'0 0.0
2017-Nov-19 08:52N 34°26' W 119°55'0 0.0
2017-Nov-19 08:19N 34°26' W 119°55'0 0.0
2017-Nov-19 07:55N 34°26' W 119°55'0 0.0
2017-Nov-19 07:28N 34°26' W 119°55'0 0.0
2017-Nov-19 06:46N 34°26' W 119°55'0 0.0
2017-Nov-19 06:28N 34°26' W 119°55'0 0.0
2017-Nov-19 05:58N 34°26' W 119°55'0 0.0
2017-Nov-19 05:25N 34°26' W 119°55'0 0.0
2017-Nov-19 04:52N 34°26' W 119°55'0 0.0
2017-Nov-19 02:49N 34°26' W 119°55'0 0.0
2017-Nov-19 02:28N 34°26' W 119°55'2 3.4
2017-Nov-19 01:57N 34°24' W 119°57'613.9
2017-Nov-19 01:30N 34°24' W 120°04'4 8.9
2017-Nov-19 01:00N 34°23' W 120°09'612.1
2017-Nov-19 00:28N 34°21' W 120°17'510.1
2017-Nov-19 00:00N 34°22' W 120°11'1 2.3
2017-Nov-18 23:30N 34°22' W 120°10'0 0.0
2017-Nov-18 22:54N 34°22' W 120°10'0 0.0
2017-Nov-18 22:30N 34°22' W 120°10'0 0.0
2017-Nov-18 21:57N 34°22' W 120°10'0 0.0
2017-Nov-18 21:27N 34°22' W 120°10'0 0.0
2017-Nov-18 21:00N 34°22' W 120°10'0 0.0
2017-Nov-18 20:27N 34°22' W 120°10'0 0.0
2017-Nov-18 19:51N 34°22' W 120°10'0 0.0
2017-Nov-18 19:27N 34°22' W 120°10'0 0.0
2017-Nov-18 18:57N 34°22' W 120°10'0 0.0
2017-Nov-18 18:30N 34°22' W 120°10'0 0.0
2017-Nov-18 18:00N 34°22' W 120°10'0 0.0
2017-Nov-18 17:30N 34°22' W 120°10'0 0.0
2017-Nov-18 17:00N 34°22' W 120°10'0 0.1
2017-Nov-18 16:26N 34°22' W 120°10'410.1
2017-Nov-18 16:00N 34°21' W 120°15'1 1.2
2017-Nov-18 15:29N 34°22' W 120°14'611.6
2017-Nov-18 15:00N 34°23' W 120°08'1 1.3
2017-Nov-18 14:29N 34°23' W 120°07'0 0.0
2017-Nov-18 13:56N 34°23' W 120°07'0 0.0
2017-Nov-18 13:29N 34°23' W 120°07'0 0.0
2017-Nov-18 12:50N 34°23' W 120°07'0 0.0
2017-Nov-18 12:23N 34°23' W 120°07'0 0.0
2017-Nov-18 11:44N 34°23' W 120°07'0 0.0
2017-Nov-18 11:26N 34°23' W 120°07'0 0.0
2017-Nov-18 10:59N 34°23' W 120°07'0 0.0
2017-Nov-18 10:29N 34°23' W 120°07'0 0.0
2017-Nov-18 09:59N 34°23' W 120°07'0 0.0
2017-Nov-18 09:17N 34°23' W 120°07'0 0.0
2017-Nov-18 08:56N 34°23' W 120°07'0 0.0
2017-Nov-18 08:20N 34°23' W 120°07'0 0.1
2017-Nov-18 07:56N 34°23' W 120°07'0 0.1
2017-Nov-18 07:17N 34°23' W 120°07'0 0.0
2017-Nov-18 06:56N 34°23' W 120°07'0 0.0
2017-Nov-18 06:24N 34°23' W 120°07'0 0.0
2017-Nov-18 06:00N 34°23' W 120°07'0 0.1
2017-Nov-18 05:27N 34°23' W 120°07'0 0.1
2017-Nov-18 05:00N 34°23' W 120°07'0 0.0
2017-Nov-18 04:30N 34°23' W 120°07'0 0.1
2017-Nov-18 03:55N 34°23' W 120°07'0 0.0
2017-Nov-18 03:29N 34°23' W 120°07'0 0.0
2017-Nov-18 03:00N 34°23' W 120°07'0 0.0
2017-Nov-18 02:13N 34°23' W 120°07'0 0.0
2017-Nov-18 01:46N 34°23' W 120°07'0 0.0
2017-Nov-18 01:30N 34°23' W 120°07'0 0.0
2017-Nov-18 00:58N 34°23' W 120°07'2 4.8
2017-Nov-18 00:30N 34°23' W 120°10'611.7
2017-Nov-17 23:59N 34°21' W 120°17'6 9.0
2017-Nov-17 23:20N 34°22' W 120°10'0 0.2
2017-Nov-17 23:00N 34°22' W 120°10'0 0.0
2017-Nov-17 22:26N 34°22' W 120°10'0 0.0
2017-Nov-17 22:00N 34°22' W 120°10'0 0.1
2017-Nov-17 21:30N 34°22' W 120°10'510.8
2017-Nov-17 21:00N 34°23' W 120°03'7 3.9
2017-Nov-17 19:11N 34°26' W 119°55'0 0.0
2017-Nov-17 18:44N 34°26' W 119°55'0 0.0
2017-Nov-17 18:29N 34°26' W 119°55'0 0.2
2017-Nov-17 18:00N 34°26' W 119°55'0 0.3
2017-Nov-17 17:28N 34°26' W 119°55'510.0
2017-Nov-17 17:00N 34°24' W 120°01'511.2
2017-Nov-17 16:30N 34°23' W 120°07'511.0
2017-Nov-17 16:00N 34°22' W 120°13'2 3.1
2017-Nov-17 15:29N 34°21' W 120°15'612.0
2017-Nov-17 15:00N 34°23' W 120°09'1 0.4
2017-Nov-17 11:44N 34°23' W 120°07'0 0.0
2017-Nov-17 11:29N 34°23' W 120°07'0 0.0
2017-Nov-17 10:59N 34°23' W 120°07'0 0.0
2017-Nov-17 10:29N 34°23' W 120°07'0 0.0
2017-Nov-17 09:56N 34°23' W 120°07'0 0.0
2017-Nov-17 09:29N 34°23' W 120°07'0 0.0
2017-Nov-17 08:59N 34°23' W 120°07'0 0.0
2017-Nov-17 08:29N 34°23' W 120°07'0 0.0
2017-Nov-17 07:23N 34°23' W 120°07'0 0.1
2017-Nov-17 06:59N 34°23' W 120°07'0 0.0
2017-Nov-17 06:29N 34°23' W 120°07'0 0.0
2017-Nov-17 05:59N 34°23' W 120°07'0 0.0
2017-Nov-17 05:29N 34°23' W 120°07'0 0.0
2017-Nov-17 04:59N 34°23' W 120°07'0 0.0
2017-Nov-17 04:29N 34°23' W 120°07'0 0.0
2017-Nov-17 03:59N 34°23' W 120°07'0 0.0
2017-Nov-17 03:29N 34°23' W 120°07'0 0.0
2017-Nov-17 02:59N 34°23' W 120°07'0 0.0
2017-Nov-17 02:26N 34°23' W 120°07'0 0.0
2017-Nov-17 01:59N 34°23' W 120°07'0 0.0
2017-Nov-17 01:29N 34°23' W 120°07'0 0.0
2017-Nov-17 00:59N 34°23' W 120°07'1 3.0
2017-Nov-17 00:30N 34°23' W 120°09'611.1
2017-Nov-16 23:59N 34°21' W 120°15'3 6.7
2017-Nov-16 23:29N 34°22' W 120°12'1 2.7
2017-Nov-16 22:55N 34°23' W 120°10'0 0.1
2017-Nov-16 22:28N 34°22' W 120°10'711.9
2017-Nov-16 21:52N 34°23' W 120°01'510.1
2017-Nov-16 21:20N 34°26' W 119°55'0 0.0
2017-Nov-16 20:41N 34°26' W 119°55'0 0.0
2017-Nov-16 20:29N 34°26' W 119°55'0 0.0
2017-Nov-16 19:59N 34°26' W 119°55'0 0.0
2017-Nov-16 19:29N 34°26' W 119°55'0 0.1
2017-Nov-16 17:40N 34°26' W 119°55'0 0.5
2017-Nov-16 17:28N 34°26' W 119°55'3 6.5
2017-Nov-16 16:58N 34°24' W 119°59'613.4
2017-Nov-16 16:30N 34°23' W 120°06'612.8
2017-Nov-16 16:00N 34°22' W 120°14'2 3.7
2017-Nov-16 15:29N 34°21' W 120°16'612.2
2017-Nov-16 14:58N 34°23' W 120°08'1 2.3
2017-Nov-16 14:27N 34°23' W 120°07'0 0.0
2017-Nov-16 14:00N 34°23' W 120°07'0 0.0
2017-Nov-16 13:00N 34°23' W 120°07'0 0.0
2017-Nov-16 12:00N 34°23' W 120°07'0 0.0
2017-Nov-16 09:48N 34°23' W 120°07'0 0.0
2017-Nov-16 09:27N 34°23' W 120°07'0 0.0
2017-Nov-16 08:00N 34°23' W 120°07'0 0.0
2017-Nov-16 04:12N 34°23' W 120°07'0 0.0
2017-Nov-16 02:09N 34°23' W 120°07'0 0.0
2017-Nov-16 01:45N 34°23' W 120°07'0 0.0
2017-Nov-16 01:20N 34°23' W 120°07'0 0.6
2017-Nov-16 01:00N 34°23' W 120°07'813.1
2017-Nov-16 00:22N 34°21' W 120°17'6 1.7
2017-Nov-15 20:59N 34°23' W 120°10'0 0.0
2017-Nov-15 19:20N 34°23' W 120°10'3 7.6
2017-Nov-15 19:00N 34°22' W 120°13'3 6.8
2017-Nov-15 18:30N 34°21' W 120°17'714.6
2017-Nov-15 18:00N 34°23' W 120°08'1 1.4
2017-Nov-15 17:19N 34°23' W 120°07'0 0.0
2017-Nov-15 16:54N 34°23' W 120°07'0 0.4
2017-Nov-15 16:27N 34°23' W 120°07'4 9.3
2017-Nov-15 16:00N 34°24' W 120°02'611.8
2017-Nov-15 15:30N 34°26' W 119°55'0 0.2
2017-Nov-15 14:28N 34°26' W 119°55'0 0.0
2017-Nov-15 13:04N 34°26' W 119°55'0 0.0
2017-Nov-15 11:55N 34°26' W 119°55'0 0.0
2017-Nov-15 11:22N 34°26' W 119°55'0 0.1
2017-Nov-15 10:52N 34°26' W 119°55'0 0.1
2017-Nov-15 10:19N 34°26' W 119°55'0 0.0
2017-Nov-15 09:55N 34°26' W 119°55'0 0.0
2017-Nov-15 09:04N 34°26' W 119°55'0 0.2
2017-Nov-15 08:52N 34°26' W 119°55'0 0.0
2017-Nov-15 08:10N 34°26' W 119°55'0 0.1
2017-Nov-15 07:40N 34°26' W 119°55'0 0.0
2017-Nov-15 07:25N 34°26' W 119°55'0 0.1
2017-Nov-15 06:58N 34°26' W 119°55'0 0.1
2017-Nov-15 06:22N 34°26' W 119°55'0 0.0
2017-Nov-15 05:58N 34°26' W 119°55'0 0.0
2017-Nov-15 04:52N 34°26' W 119°55'0 0.0
2017-Nov-15 04:28N 34°26' W 119°55'0 0.0
2017-Nov-15 01:13N 34°26' W 119°55'7 9.4
2017-Nov-15 00:30N 34°23' W 120°03'2 4.1
2017-Nov-15 00:00N 34°24' W 120°06'813.7
2017-Nov-14 23:25N 34°24' W 119°56'1 3.2
2017-Nov-14 22:59N 34°26' W 119°55'0 0.0
2017-Nov-14 21:58N 34°26' W 119°55'0 0.0
2017-Nov-14 21:24N 34°26' W 119°55'0 1.2
2017-Nov-14 21:00N 34°25' W 119°56'712.2
2017-Nov-14 20:27N 34°23' W 120°03'4 8.8
2017-Nov-14 19:59N 34°23' W 120°08'1 0.4
2017-Nov-14 16:33N 34°22' W 120°10'0 0.0
2017-Nov-14 16:17N 34°22' W 120°10'0 0.0
2017-Nov-14 15:59N 34°22' W 120°10'1 1.0
2017-Nov-14 15:30N 34°23' W 120°09'12 8.7
2017-Nov-14 14:08N 34°26' W 119°55'0 1.0
2017-Nov-14 13:53N 34°26' W 119°55'0 0.5
2017-Nov-14 13:26N 34°26' W 119°55'0 0.0
2017-Nov-14 12:56N 34°26' W 119°55'0 0.0
2017-Nov-14 11:14N 34°26' W 119°55'0 0.1
2017-Nov-14 10:44N 34°26' W 119°55'0 0.1
2017-Nov-14 10:20N 34°26' W 119°55'0 0.1
2017-Nov-14 09:55N 34°26' W 119°55'0 0.0
2017-Nov-14 09:25N 34°26' W 119°55'0 0.0
2017-Nov-14 07:37N 34°26' W 119°55'0 0.0
2017-Nov-14 07:25N 34°26' W 119°55'0 0.0
2017-Nov-14 06:19N 34°26' W 119°55'0 0.0
2017-Nov-14 05:52N 34°26' W 119°55'0 0.0
2017-Nov-14 02:55N 34°26' W 119°55'0 0.1
2017-Nov-14 02:22N 34°26' W 119°55'0 0.3
2017-Nov-14 01:59N 34°26' W 119°55'0 0.2
2017-Nov-14 01:29N 34°26' W 119°55'8 8.9
2017-Nov-14 00:34N 34°24' W 120°05'113.1
2017-Nov-14 00:29N 34°24' W 120°06'3 1.8
2017-Nov-13 22:45N 34°22' W 120°10'0 0.1
2017-Nov-13 22:30N 34°22' W 120°10'1 2.0
2017-Nov-13 22:00N 34°23' W 120°09'2 0.1
2017-Nov-13 02:00N 34°23' W 120°07'0 0.1
2017-Nov-13 01:28N 34°23' W 120°07'0 0.7
2017-Nov-13 01:00N 34°23' W 120°07'2 3.8
2017-Nov-13 00:27N 34°22' W 120°10'0 0.0
2017-Nov-12 23:55N 34°22' W 120°10'0 0.0
2017-Nov-12 23:22N 34°22' W 120°10'0 0.7
2017-Nov-12 22:59N 34°23' W 120°10'2 4.8
2017-Nov-12 22:28N 34°23' W 120°07'2 5.3
2017-Nov-12 22:00N 34°23' W 120°10'611.4
2017-Nov-12 21:30N 34°21' W 120°17'0 0.1
2017-Nov-12 21:00N 34°21' W 120°17'6 1.4
2017-Nov-12 16:42N 34°22' W 120°10'0 0.0
2017-Nov-12 16:23N 34°22' W 120°10'3 7.1
2017-Nov-12 16:00N 34°23' W 120°07'713.4
2017-Nov-12 15:30N 34°24' W 119°59'3 6.3
2017-Nov-12 14:58N 34°26' W 119°55'0 0.0
2017-Nov-12 05:34N 34°26' W 119°55'0 0.0
2017-Nov-12 05:07N 34°26' W 119°55'0 0.0
2017-Nov-12 03:28N 34°26' W 119°55'0 0.0
2017-Nov-12 00:01N 34°26' W 119°55'0 0.0
2017-Nov-11 19:58N 34°26' W 119°55'5 7.1
2017-Nov-11 19:12N 34°24' W 120°02'312.8
2017-Nov-11 18:58N 34°24' W 120°05'3 4.9
2017-Nov-11 18:16N 34°24' W 120°01'5 2.2
2017-Nov-11 16:05N 34°26' W 119°55'110.0
2017-Nov-11 15:57N 34°25' W 119°56'613.3
2017-Nov-11 15:29N 34°24' W 120°04'3 6.3
2017-Nov-11 15:00N 34°23' W 120°07'0 0.3
2017-Nov-11 14:22N 34°23' W 120°07'0 0.0
2017-Nov-11 13:55N 34°23' W 120°07'0 0.0
2017-Nov-11 13:19N 34°23' W 120°07'0 0.0
2017-Nov-11 12:56N 34°23' W 120°07'0 0.0
2017-Nov-11 12:29N 34°23' W 120°07'0 0.0
2017-Nov-11 11:53N 34°23' W 120°07'0 0.0
2017-Nov-11 11:29N 34°23' W 120°07'0 0.0
2017-Nov-11 10:59N 34°23' W 120°07'0 0.0
2017-Nov-11 10:29N 34°23' W 120°07'0 0.0
2017-Nov-11 09:53N 34°23' W 120°07'0 0.0
2017-Nov-11 09:29N 34°23' W 120°07'0 0.0
2017-Nov-11 08:13N 34°23' W 120°07'0 0.0
2017-Nov-11 07:58N 34°23' W 120°07'0 0.0
2017-Nov-11 07:15N 34°23' W 120°07'0 0.0
2017-Nov-11 06:53N 34°23' W 120°07'0 0.1
2017-Nov-11 06:26N 34°23' W 120°07'0 0.1
2017-Nov-11 06:00N 34°23' W 120°07'0 0.0
2017-Nov-11 05:28N 34°23' W 120°07'0 0.0
2017-Nov-11 04:54N 34°23' W 120°07'0 0.0
2017-Nov-11 04:30N 34°23' W 120°07'0 0.0
2017-Nov-11 04:00N 34°23' W 120°07'0 0.1
2017-Nov-11 03:30N 34°23' W 120°07'0 0.0
2017-Nov-11 02:51N 34°23' W 120°07'0 0.0
2017-Nov-11 02:27N 34°23' W 120°07'0 0.0
2017-Nov-11 02:00N 34°23' W 120°07'0 0.0
2017-Nov-11 01:29N 34°23' W 120°07'3 5.4
2017-Nov-11 01:00N 34°23' W 120°10'0 0.3
2017-Nov-11 00:14N 34°22' W 120°10'0 0.0
2017-Nov-11 00:00N 34°22' W 120°10'0 0.0
2017-Nov-10 23:18N 34°22' W 120°10'0 0.0
2017-Nov-10 22:59N 34°22' W 120°10'0 0.0
2017-Nov-10 22:17N 34°22' W 120°10'0 0.0
2017-Nov-10 21:58N 34°22' W 120°10'0 0.0
2017-Nov-10 21:12N 34°22' W 120°10'0 0.0
2017-Nov-10 21:00N 34°22' W 120°10'0 0.0
2017-Nov-10 20:24N 34°22' W 120°10'0 0.0
2017-Nov-10 19:00N 34°22' W 120°10'0 0.0
2017-Nov-10 18:24N 34°22' W 120°10'0 0.0
2017-Nov-10 17:09N 34°22' W 120°10'0 0.0
2017-Nov-10 17:00N 34°22' W 120°10'0 0.1
2017-Nov-10 16:26N 34°22' W 120°10'3 8.0
2017-Nov-10 16:00N 34°22' W 120°14'1 2.9
2017-Nov-10 15:30N 34°22' W 120°12'3 5.4
2017-Nov-10 15:00N 34°23' W 120°09'2 1.0
2017-Nov-10 13:10N 34°23' W 120°07'0 0.2
2017-Nov-10 12:55N 34°23' W 120°07'0 0.0
2017-Nov-10 12:27N 34°23' W 120°07'0 0.0
2017-Nov-10 11:58N 34°23' W 120°07'0 0.1
2017-Nov-10 11:28N 34°23' W 120°07'0 0.0
2017-Nov-10 10:58N 34°23' W 120°07'0 0.0
2017-Nov-10 10:25N 34°23' W 120°07'0 0.0
2017-Nov-10 09:56N 34°23' W 120°07'0 0.1
2017-Nov-10 09:30N 34°23' W 120°07'0 0.1
2017-Nov-10 08:59N 34°23' W 120°07'0 0.1
2017-Nov-10 08:28N 34°23' W 120°07'0 0.0
2017-Nov-10 07:29N 34°23' W 120°07'0 0.0
2017-Nov-10 07:00N 34°23' W 120°07'0 0.0
2017-Nov-10 06:29N 34°23' W 120°07'0 0.1
2017-Nov-10 05:58N 34°23' W 120°07'0 0.1
2017-Nov-10 05:27N 34°23' W 120°07'0 0.0
2017-Nov-10 05:00N 34°23' W 120°07'0 0.0
2017-Nov-10 04:30N 34°23' W 120°07'0 0.0
2017-Nov-10 03:36N 34°23' W 120°07'0 0.0
2017-Nov-10 03:06N 34°23' W 120°07'0 0.0
2017-Nov-10 02:10N 34°23' W 120°07'0 0.0
2017-Nov-10 02:00N 34°23' W 120°07'0 0.0
2017-Nov-10 01:27N 34°23' W 120°07'0 0.0
2017-Nov-10 01:00N 34°23' W 120°07'0 0.0
2017-Nov-10 00:30N 34°23' W 120°07'  
Track history (hours):
 
Tides and Currents Weather Stations Pressure Air Temp Water Temp Dewpoint Dewpoint Depression Visibility Wind Speed Wind Dir Waves Ship Positions

Ace High

Owner: C & C BOATS INC, HUNTINGTON BEACH, CA. More information available from US FCC via Universal Licensing System and Coast Guard Vessel Documentation Center.

Last reported at 2017-Nov-20 00:25 UTC. Time now 2017-Nov-20 09:54 UTC.
Position N 34°21' W 120°17'.

Length 96 m.

Type: Passenger vessel. MMSI: 367394750.

Date/timePositionNaut miles runAvg speedWind from/ knotsBaromVisibWave heightAir tempDewpointWater temp
2017-Nov-20 00:25N 34°21' W 120°17'510.3
2017-Nov-19 23:58N 34°22' W 120°11'1 1.4
2017-Nov-19 23:01N 34°22' W 120°10'0 0.0
2017-Nov-19 22:46N 34°22' W 120°10'0 0.0
2017-Nov-19 21:49N 34°22' W 120°10'0 0.1
2017-Nov-19 21:25N 34°23' W 120°10'0 0.1
2017-Nov-19 20:55N 34°22' W 120°10'0 0.0
2017-Nov-19 19:19N 34°22' W 120°10'0 0.0
2017-Nov-19 18:55N 34°22' W 120°10'0 0.0
2017-Nov-19 18:25N 34°22' W 120°10'0 0.0
2017-Nov-19 16:52N 34°22' W 120°10'2 4.4
2017-Nov-19 16:28N 34°23' W 120°08'715.0
2017-Nov-19 16:00N 34°24' W 119°60'4 6.4
2017-Nov-19 15:22N 34°26' W 119°55'0 0.0
2017-Nov-19 14:52N 34°26' W 119°55'0 0.0
2017-Nov-19 13:43N 34°26' W 119°55'0 0.0
2017-Nov-19 12:37N 34°26' W 119°55'0 0.0
2017-Nov-19 12:16N 34°26' W 119°55'0 0.0
2017-Nov-19 11:58N 34°26' W 119°55'0 0.0
2017-Nov-19 10:25N 34°26' W 119°55'0 0.0
2017-Nov-19 09:04N 34°26' W 119°55'0 0.0
2017-Nov-19 08:52N 34°26' W 119°55'0 0.0
2017-Nov-19 08:19N 34°26' W 119°55'0 0.0
2017-Nov-19 07:55N 34°26' W 119°55'0 0.0
2017-Nov-19 07:28N 34°26' W 119°55'0 0.0
2017-Nov-19 06:46N 34°26' W 119°55'0 0.0
2017-Nov-19 06:28N 34°26' W 119°55'0 0.0
2017-Nov-19 05:58N 34°26' W 119°55'0 0.0
2017-Nov-19 05:25N 34°26' W 119°55'0 0.0
2017-Nov-19 04:52N 34°26' W 119°55'0 0.0
2017-Nov-19 02:49N 34°26' W 119°55'0 0.0
2017-Nov-19 02:28N 34°26' W 119°55'2 3.4
2017-Nov-19 01:57N 34°24' W 119°57'613.9
2017-Nov-19 01:30N 34°24' W 120°04'4 8.9
2017-Nov-19 01:00N 34°23' W 120°09'612.1
2017-Nov-19 00:28N 34°21' W 120°17'510.1
2017-Nov-19 00:00N 34°22' W 120°11'1 2.3
2017-Nov-18 23:30N 34°22' W 120°10'0 0.0
2017-Nov-18 22:54N 34°22' W 120°10'0 0.0
2017-Nov-18 22:30N 34°22' W 120°10'0 0.0
2017-Nov-18 21:57N 34°22' W 120°10'0 0.0
2017-Nov-18 21:27N 34°22' W 120°10'0 0.0
2017-Nov-18 21:00N 34°22' W 120°10'0 0.0
2017-Nov-18 20:27N 34°22' W 120°10'0 0.0
2017-Nov-18 19:51N 34°22' W 120°10'0 0.0
2017-Nov-18 19:27N 34°22' W 120°10'0 0.0
2017-Nov-18 18:57N 34°22' W 120°10'0 0.0
2017-Nov-18 18:30N 34°22' W 120°10'0 0.0
2017-Nov-18 18:00N 34°22' W 120°10'0 0.0
2017-Nov-18 17:30N 34°22' W 120°10'0 0.0
2017-Nov-18 17:00N 34°22' W 120°10'0 0.1
2017-Nov-18 16:26N 34°22' W 120°10'410.1
2017-Nov-18 16:00N 34°21' W 120°15'1 1.2
2017-Nov-18 15:29N 34°22' W 120°14'611.6
2017-Nov-18 15:00N 34°23' W 120°08'1 1.3
2017-Nov-18 14:29N 34°23' W 120°07'0 0.0
2017-Nov-18 13:56N 34°23' W 120°07'0 0.0
2017-Nov-18 13:29N 34°23' W 120°07'0 0.0
2017-Nov-18 12:50N 34°23' W 120°07'0 0.0
2017-Nov-18 12:23N 34°23' W 120°07'0 0.0
2017-Nov-18 11:44N 34°23' W 120°07'0 0.0
2017-Nov-18 11:26N 34°23' W 120°07'0 0.0
2017-Nov-18 10:59N 34°23' W 120°07'0 0.0
2017-Nov-18 10:29N 34°23' W 120°07'0 0.0
2017-Nov-18 09:59N 34°23' W 120°07'0 0.0
2017-Nov-18 09:17N 34°23' W 120°07'0 0.0
2017-Nov-18 08:56N 34°23' W 120°07'0 0.0
2017-Nov-18 08:20N 34°23' W 120°07'0 0.1
2017-Nov-18 07:56N 34°23' W 120°07'0 0.1
2017-Nov-18 07:17N 34°23' W 120°07'0 0.0
2017-Nov-18 06:56N 34°23' W 120°07'0 0.0
2017-Nov-18 06:24N 34°23' W 120°07'0 0.0
2017-Nov-18 06:00N 34°23' W 120°07'0 0.1
2017-Nov-18 05:27N 34°23' W 120°07'0 0.1
2017-Nov-18 05:00N 34°23' W 120°07'0 0.0
2017-Nov-18 04:30N 34°23' W 120°07'0 0.1
2017-Nov-18 03:55N 34°23' W 120°07'0 0.0
2017-Nov-18 03:29N 34°23' W 120°07'0 0.0
2017-Nov-18 03:00N 34°23' W 120°07'0 0.0
2017-Nov-18 02:13N 34°23' W 120°07'0 0.0
2017-Nov-18 01:46N 34°23' W 120°07'0 0.0
2017-Nov-18 01:30N 34°23' W 120°07'0 0.0
2017-Nov-18 00:58N 34°23' W 120°07'2 4.8
2017-Nov-18 00:30N 34°23' W 120°10'611.7
2017-Nov-17 23:59N 34°21' W 120°17'6 9.0
2017-Nov-17 23:20N 34°22' W 120°10'0 0.2
2017-Nov-17 23:00N 34°22' W 120°10'0 0.0
2017-Nov-17 22:26N 34°22' W 120°10'0 0.0
2017-Nov-17 22:00N 34°22' W 120°10'0 0.1
2017-Nov-17 21:30N 34°22' W 120°10'510.8
2017-Nov-17 21:00N 34°23' W 120°03'7 3.9
2017-Nov-17 19:11N 34°26' W 119°55'0 0.0
2017-Nov-17 18:44N 34°26' W 119°55'0 0.0
2017-Nov-17 18:29N 34°26' W 119°55'0 0.2
2017-Nov-17 18:00N 34°26' W 119°55'0 0.3
2017-Nov-17 17:28N 34°26' W 119°55'510.0
2017-Nov-17 17:00N 34°24' W 120°01'511.2
2017-Nov-17 16:30N 34°23' W 120°07'511.0
2017-Nov-17 16:00N 34°22' W 120°13'2 3.1
2017-Nov-17 15:29N 34°21' W 120°15'612.0
2017-Nov-17 15:00N 34°23' W 120°09'1 0.4
2017-Nov-17 11:44N 34°23' W 120°07'0 0.0
2017-Nov-17 11:29N 34°23' W 120°07'0 0.0
2017-Nov-17 10:59N 34°23' W 120°07'0 0.0
2017-Nov-17 10:29N 34°23' W 120°07'0 0.0
2017-Nov-17 09:56N 34°23' W 120°07'0 0.0
2017-Nov-17 09:29N 34°23' W 120°07'0 0.0
2017-Nov-17 08:59N 34°23' W 120°07'0 0.0
2017-Nov-17 08:29N 34°23' W 120°07'0 0.0
2017-Nov-17 07:23N 34°23' W 120°07'0 0.1
2017-Nov-17 06:59N 34°23' W 120°07'0 0.0
2017-Nov-17 06:29N 34°23' W 120°07'0 0.0
2017-Nov-17 05:59N 34°23' W 120°07'0 0.0
2017-Nov-17 05:29N 34°23' W 120°07'0 0.0
2017-Nov-17 04:59N 34°23' W 120°07'0 0.0
2017-Nov-17 04:29N 34°23' W 120°07'0 0.0
2017-Nov-17 03:59N 34°23' W 120°07'0 0.0
2017-Nov-17 03:29N 34°23' W 120°07'0 0.0
2017-Nov-17 02:59N 34°23' W 120°07'0 0.0
2017-Nov-17 02:26N 34°23' W 120°07'0 0.0
2017-Nov-17 01:59N 34°23' W 120°07'0 0.0
2017-Nov-17 01:29N 34°23' W 120°07'0 0.0
2017-Nov-17 00:59N 34°23' W 120°07'1 3.0
2017-Nov-17 00:30N 34°23' W 120°09'611.1
2017-Nov-16 23:59N 34°21' W 120°15'3 6.7
2017-Nov-16 23:29N 34°22' W 120°12'1 2.7
2017-Nov-16 22:55N 34°23' W 120°10'0 0.1
2017-Nov-16 22:28N 34°22' W 120°10'711.9
2017-Nov-16 21:52N 34°23' W 120°01'510.1
2017-Nov-16 21:20N 34°26' W 119°55'0 0.0
2017-Nov-16 20:41N 34°26' W 119°55'0 0.0
2017-Nov-16 20:29N 34°26' W 119°55'0 0.0
2017-Nov-16 19:59N 34°26' W 119°55'0 0.0
2017-Nov-16 19:29N 34°26' W 119°55'0 0.1
2017-Nov-16 17:40N 34°26' W 119°55'0 0.5
2017-Nov-16 17:28N 34°26' W 119°55'3 6.5
2017-Nov-16 16:58N 34°24' W 119°59'613.4
2017-Nov-16 16:30N 34°23' W 120°06'612.8
2017-Nov-16 16:00N 34°22' W 120°14'2 3.7
2017-Nov-16 15:29N 34°21' W 120°16'612.2
2017-Nov-16 14:58N 34°23' W 120°08'1 2.3
2017-Nov-16 14:27N 34°23' W 120°07'0 0.0
2017-Nov-16 14:00N 34°23' W 120°07'0 0.0
2017-Nov-16 13:00N 34°23' W 120°07'0 0.0
2017-Nov-16 12:00N 34°23' W 120°07'0 0.0
2017-Nov-16 09:48N 34°23' W 120°07'0 0.0
2017-Nov-16 09:27N 34°23' W 120°07'0 0.0
2017-Nov-16 08:00N 34°23' W 120°07'0 0.0
2017-Nov-16 04:12N 34°23' W 120°07'0 0.0
2017-Nov-16 02:09N 34°23' W 120°07'0 0.0
2017-Nov-16 01:45N 34°23' W 120°07'0 0.0
2017-Nov-16 01:20N 34°23' W 120°07'0 0.6
2017-Nov-16 01:00N 34°23' W 120°07'813.1
2017-Nov-16 00:22N 34°21' W 120°17'6 1.7
2017-Nov-15 20:59N 34°23' W 120°10'0 0.0
2017-Nov-15 19:20N 34°23' W 120°10'3 7.6
2017-Nov-15 19:00N 34°22' W 120°13'3 6.8
2017-Nov-15 18:30N 34°21' W 120°17'714.6
2017-Nov-15 18:00N 34°23' W 120°08'1 1.4
2017-Nov-15 17:19N 34°23' W 120°07'0 0.0
2017-Nov-15 16:54N 34°23' W 120°07'0 0.4
2017-Nov-15 16:27N 34°23' W 120°07'4 9.3
2017-Nov-15 16:00N 34°24' W 120°02'611.8
2017-Nov-15 15:30N 34°26' W 119°55'0 0.2
2017-Nov-15 14:28N 34°26' W 119°55'0 0.0
2017-Nov-15 13:04N 34°26' W 119°55'0 0.0
2017-Nov-15 11:55N 34°26' W 119°55'0 0.0
2017-Nov-15 11:22N 34°26' W 119°55'0 0.1
2017-Nov-15 10:52N 34°26' W 119°55'0 0.1
2017-Nov-15 10:19N 34°26' W 119°55'0 0.0
2017-Nov-15 09:55N 34°26' W 119°55'0 0.0
2017-Nov-15 09:04N 34°26' W 119°55'0 0.2
2017-Nov-15 08:52N 34°26' W 119°55'0 0.0
2017-Nov-15 08:10N 34°26' W 119°55'0 0.1
2017-Nov-15 07:40N 34°26' W 119°55'0 0.0
2017-Nov-15 07:25N 34°26' W 119°55'0 0.1
2017-Nov-15 06:58N 34°26' W 119°55'0 0.1
2017-Nov-15 06:22N 34°26' W 119°55'0 0.0
2017-Nov-15 05:58N 34°26' W 119°55'0 0.0
2017-Nov-15 04:52N 34°26' W 119°55'0 0.0
2017-Nov-15 04:28N 34°26' W 119°55'0 0.0
2017-Nov-15 01:13N 34°26' W 119°55'7 9.4
2017-Nov-15 00:30N 34°23' W 120°03'2 4.1
2017-Nov-15 00:00N 34°24' W 120°06'813.7
2017-Nov-14 23:25N 34°24' W 119°56'1 3.2
2017-Nov-14 22:59N 34°26' W 119°55'0 0.0
2017-Nov-14 21:58N 34°26' W 119°55'0 0.0
2017-Nov-14 21:24N 34°26' W 119°55'0 1.2
2017-Nov-14 21:00N 34°25' W 119°56'712.2
2017-Nov-14 20:27N 34°23' W 120°03'4 8.8
2017-Nov-14 19:59N 34°23' W 120°08'1 0.4
2017-Nov-14 16:33N 34°22' W 120°10'0 0.0
2017-Nov-14 16:17N 34°22' W 120°10'0 0.0
2017-Nov-14 15:59N 34°22' W 120°10'1 1.0
2017-Nov-14 15:30N 34°23' W 120°09'12 8.7
2017-Nov-14 14:08N 34°26' W 119°55'0 1.0
2017-Nov-14 13:53N 34°26' W 119°55'0 0.5
2017-Nov-14 13:26N 34°26' W 119°55'0 0.0
2017-Nov-14 12:56N 34°26' W 119°55'0 0.0
2017-Nov-14 11:14N 34°26' W 119°55'0 0.1
2017-Nov-14 10:44N 34°26' W 119°55'0 0.1
2017-Nov-14 10:20N 34°26' W 119°55'0 0.1
2017-Nov-14 09:55N 34°26' W 119°55'0 0.0
2017-Nov-14 09:25N 34°26' W 119°55'0 0.0
2017-Nov-14 07:37N 34°26' W 119°55'0 0.0
2017-Nov-14 07:25N 34°26' W 119°55'0 0.0
2017-Nov-14 06:19N 34°26' W 119°55'0 0.0
2017-Nov-14 05:52N 34°26' W 119°55'0 0.0
2017-Nov-14 02:55N 34°26' W 119°55'0 0.1
2017-Nov-14 02:22N 34°26' W 119°55'0 0.3
2017-Nov-14 01:59N 34°26' W 119°55'0 0.2
2017-Nov-14 01:29N 34°26' W 119°55'8 8.9
2017-Nov-14 00:34N 34°24' W 120°05'113.1
2017-Nov-14 00:29N 34°24' W 120°06'3 1.8
2017-Nov-13 22:45N 34°22' W 120°10'0 0.1
2017-Nov-13 22:30N 34°22' W 120°10'1 2.0
2017-Nov-13 22:00N 34°23' W 120°09'2 0.1
2017-Nov-13 02:00N 34°23' W 120°07'0 0.1
2017-Nov-13 01:28N 34°23' W 120°07'0 0.7
2017-Nov-13 01:00N 34°23' W 120°07'2 3.8
2017-Nov-13 00:27N 34°22' W 120°10'0 0.0
2017-Nov-12 23:55N 34°22' W 120°10'0 0.0
2017-Nov-12 23:22N 34°22' W 120°10'0 0.7
2017-Nov-12 22:59N 34°23' W 120°10'2 4.8
2017-Nov-12 22:28N 34°23' W 120°07'2 5.3
2017-Nov-12 22:00N 34°23' W 120°10'611.4
2017-Nov-12 21:30N 34°21' W 120°17'0 0.1
2017-Nov-12 21:00N 34°21' W 120°17'6 1.4
2017-Nov-12 16:42N 34°22' W 120°10'0 0.0
2017-Nov-12 16:23N 34°22' W 120°10'3 7.1
2017-Nov-12 16:00N 34°23' W 120°07'713.4
2017-Nov-12 15:30N 34°24' W 119°59'3 6.3
2017-Nov-12 14:58N 34°26' W 119°55'0 0.0
2017-Nov-12 05:34N 34°26' W 119°55'0 0.0
2017-Nov-12 05:07N 34°26' W 119°55'0 0.0
2017-Nov-12 03:28N 34°26' W 119°55'0 0.0
2017-Nov-12 00:01N 34°26' W 119°55'0 0.0
2017-Nov-11 19:58N 34°26' W 119°55'5 7.1
2017-Nov-11 19:12N 34°24' W 120°02'312.8
2017-Nov-11 18:58N 34°24' W 120°05'3 4.9
2017-Nov-11 18:16N 34°24' W 120°01'5 2.2
2017-Nov-11 16:05N 34°26' W 119°55'110.0
2017-Nov-11 15:57N 34°25' W 119°56'613.3
2017-Nov-11 15:29N 34°24' W 120°04'3 6.3
2017-Nov-11 15:00N 34°23' W 120°07'0 0.3
2017-Nov-11 14:22N 34°23' W 120°07'0 0.0
2017-Nov-11 13:55N 34°23' W 120°07'0 0.0
2017-Nov-11 13:19N 34°23' W 120°07'0 0.0
2017-Nov-11 12:56N 34°23' W 120°07'0 0.0
2017-Nov-11 12:29N 34°23' W 120°07'0 0.0
2017-Nov-11 11:53N 34°23' W 120°07'0 0.0
2017-Nov-11 11:29N 34°23' W 120°07'0 0.0
2017-Nov-11 10:59N 34°23' W 120°07'0 0.0
2017-Nov-11 10:29N 34°23' W 120°07'0 0.0
2017-Nov-11 09:53N 34°23' W 120°07'0 0.0
2017-Nov-11 09:29N 34°23' W 120°07'0 0.0
2017-Nov-11 08:13N 34°23' W 120°07'0 0.0
2017-Nov-11 07:58N 34°23' W 120°07'0 0.0
2017-Nov-11 07:15N 34°23' W 120°07'0 0.0
2017-Nov-11 06:53N 34°23' W 120°07'0 0.1
2017-Nov-11 06:26N 34°23' W 120°07'0 0.1
2017-Nov-11 06:00N 34°23' W 120°07'0 0.0
2017-Nov-11 05:28N 34°23' W 120°07'0 0.0
2017-Nov-11 04:54N 34°23' W 120°07'0 0.0
2017-Nov-11 04:30N 34°23' W 120°07'0 0.0
2017-Nov-11 04:00N 34°23' W 120°07'0 0.1
2017-Nov-11 03:30N 34°23' W 120°07'0 0.0
2017-Nov-11 02:51N 34°23' W 120°07'0 0.0
2017-Nov-11 02:27N 34°23' W 120°07'0 0.0
2017-Nov-11 02:00N 34°23' W 120°07'0 0.0
2017-Nov-11 01:29N 34°23' W 120°07'3 5.4
2017-Nov-11 01:00N 34°23' W 120°10'0 0.3
2017-Nov-11 00:14N 34°22' W 120°10'0 0.0
2017-Nov-11 00:00N 34°22' W 120°10'0 0.0
2017-Nov-10 23:18N 34°22' W 120°10'0 0.0
2017-Nov-10 22:59N 34°22' W 120°10'0 0.0
2017-Nov-10 22:17N 34°22' W 120°10'0 0.0
2017-Nov-10 21:58N 34°22' W 120°10'0 0.0
2017-Nov-10 21:12N 34°22' W 120°10'0 0.0
2017-Nov-10 21:00N 34°22' W 120°10'0 0.0
2017-Nov-10 20:24N 34°22' W 120°10'0 0.0
2017-Nov-10 19:00N 34°22' W 120°10'0 0.0
2017-Nov-10 18:24N 34°22' W 120°10'0 0.0
2017-Nov-10 17:09N 34°22' W 120°10'0 0.0
2017-Nov-10 17:00N 34°22' W 120°10'0 0.1
2017-Nov-10 16:26N 34°22' W 120°10'3 8.0
2017-Nov-10 16:00N 34°22' W 120°14'1 2.9
2017-Nov-10 15:30N 34°22' W 120°12'3 5.4
2017-Nov-10 15:00N 34°23' W 120°09'2 1.0
2017-Nov-10 13:10N 34°23' W 120°07'0 0.2
2017-Nov-10 12:55N 34°23' W 120°07'0 0.0
2017-Nov-10 12:27N 34°23' W 120°07'0 0.0
2017-Nov-10 11:58N 34°23' W 120°07'0 0.1
2017-Nov-10 11:28N 34°23' W 120°07'0 0.0
2017-Nov-10 10:58N 34°23' W 120°07'0 0.0
2017-Nov-10 10:25N 34°23' W 120°07'0 0.0
2017-Nov-10 09:56N 34°23' W 120°07'0 0.1
2017-Nov-10 09:30N 34°23' W 120°07'0 0.1
2017-Nov-10 08:59N 34°23' W 120°07'0 0.1
2017-Nov-10 08:28N 34°23' W 120°07'0 0.0
2017-Nov-10 07:29N 34°23' W 120°07'0 0.0
2017-Nov-10 07:00N 34°23' W 120°07'0 0.0
2017-Nov-10 06:29N 34°23' W 120°07'0 0.1
2017-Nov-10 05:58N 34°23' W 120°07'0 0.1
2017-Nov-10 05:27N 34°23' W 120°07'0 0.0
2017-Nov-10 05:00N 34°23' W 120°07'0 0.0
2017-Nov-10 04:30N 34°23' W 120°07'0 0.0
2017-Nov-10 03:36N 34°23' W 120°07'0 0.0
2017-Nov-10 03:06N 34°23' W 120°07'0 0.0
2017-Nov-10 02:10N 34°23' W 120°07'0 0.0
2017-Nov-10 02:00N 34°23' W 120°07'0 0.0
2017-Nov-10 01:27N 34°23' W 120°07'0 0.0
2017-Nov-10 01:00N 34°23' W 120°07'0 0.0
2017-Nov-10 00:30N 34°23' W 120°07'  

Dump ship's entire track history